createdAt,value
2019-06-26T00:01:36.678Z,17.80
2019-06-26T00:04:46.237Z,17.70
2019-06-26T00:07:59.943Z,17.70
2019-06-26T00:11:08.070Z,17.60
2019-06-26T00:14:27.610Z,17.60
2019-06-26T00:17:37.931Z,17.50
2019-06-26T00:20:41.290Z,17.50
2019-06-26T00:23:49.875Z,17.50
2019-06-26T00:26:59.194Z,17.50
2019-06-26T00:30:15.483Z,17.50
2019-06-26T00:33:29.804Z,17.40
2019-06-26T00:36:42.324Z,17.40
2019-06-26T00:40:06.216Z,17.30
2019-06-26T00:43:20.017Z,17.20
2019-06-26T00:46:30.397Z,17.10
2019-06-26T00:49:50.144Z,17.00
2019-06-26T00:53:06.528Z,17.10
2019-06-26T00:56:14.477Z,17.00
2019-06-26T00:59:28.504Z,17.10
2019-06-26T01:02:45.461Z,17.10
2019-06-26T01:05:52.892Z,17.10
2019-06-26T01:08:49.717Z,17.00
2019-06-26T01:12:03.463Z,17.00
2019-06-26T01:15:03.174Z,16.90
2019-06-26T01:18:05.029Z,16.90
2019-06-26T01:21:20.009Z,16.90
2019-06-26T01:24:27.888Z,16.80
2019-06-26T01:27:33.311Z,16.90
2019-06-26T01:30:53.075Z,16.80
2019-06-26T01:34:00.586Z,16.80
2019-06-26T01:37:22.389Z,16.80
2019-06-26T01:40:40.615Z,16.70
2019-06-26T01:43:50.231Z,16.70
2019-06-26T01:46:59.694Z,16.70
2019-06-26T01:50:08.561Z,16.70
2019-06-26T01:53:21.257Z,16.70
2019-06-26T01:56:42.062Z,16.70
2019-06-26T02:00:02.203Z,16.60
2019-06-26T02:03:12.970Z,16.60
2019-06-26T02:06:28.246Z,16.60
2019-06-26T02:09:37.290Z,16.60
2019-06-26T02:12:49.718Z,16.60
2019-06-26T02:16:15.707Z,16.50
2019-06-26T02:19:27.547Z,16.50
2019-06-26T02:22:37.079Z,16.50
2019-06-26T02:25:56.051Z,16.50
2019-06-26T02:29:05.839Z,16.50
2019-06-26T02:32:20.113Z,16.50
2019-06-26T02:35:25.191Z,16.50
2019-06-26T02:38:39.686Z,16.50
2019-06-26T02:41:57.083Z,16.50
2019-06-26T02:44:55.205Z,16.50
2019-06-26T02:48:03.640Z,16.50
2019-06-26T02:51:12.760Z,16.60
2019-06-26T02:54:31.163Z,16.50
2019-06-26T02:57:39.694Z,16.50
2019-06-26T03:00:53.651Z,16.50
2019-06-26T03:03:52.170Z,16.50
2019-06-26T03:07:01.046Z,16.50
2019-06-26T03:10:11.893Z,16.50
2019-06-26T03:13:28.510Z,16.40
2019-06-26T03:16:42.248Z,16.40
2019-06-26T03:19:51.942Z,16.50
2019-06-26T03:23:02.043Z,16.40
2019-06-26T03:26:06.583Z,16.40
2019-06-26T03:29:15.087Z,16.40
2019-06-26T03:32:26.712Z,16.40
2019-06-26T03:35:45.738Z,16.40
2019-06-26T03:38:48.845Z,16.50
2019-06-26T03:42:04.687Z,16.50
2019-06-26T03:45:25.304Z,16.50
2019-06-26T03:48:16.642Z,16.40
2019-06-26T03:51:33.418Z,16.50
2019-06-26T03:54:43.547Z,16.50
2019-06-26T03:57:54.559Z,16.50
2019-06-26T04:01:20.657Z,16.60
2019-06-26T04:04:28.519Z,16.50
2019-06-26T04:07:38.468Z,16.50
2019-06-26T04:10:43.528Z,16.50
2019-06-26T04:13:45.300Z,16.50
2019-06-26T04:17:02.489Z,16.50
2019-06-26T04:20:16.369Z,16.40
2019-06-26T04:23:19.127Z,16.40
2019-06-26T04:26:28.160Z,16.40
2019-06-26T04:29:41.814Z,16.50
2019-06-26T04:32:54.083Z,16.50
2019-06-26T04:36:02.509Z,16.50
2019-06-26T04:39:11.443Z,16.40
2019-06-26T04:42:24.636Z,16.40
2019-06-26T04:45:33.741Z,16.30
2019-06-26T04:48:46.043Z,16.40
2019-06-26T04:52:08.111Z,16.30
2019-06-26T04:55:24.767Z,16.30
2019-06-26T04:58:38.113Z,16.30
2019-06-26T05:01:51.366Z,16.40
2019-06-26T05:05:02.076Z,16.40
2019-06-26T05:08:16.194Z,16.40
2019-06-26T05:11:30.427Z,16.40
2019-06-26T05:14:39.626Z,16.40
2019-06-26T05:17:45.589Z,16.50
2019-06-26T05:20:56.124Z,16.50
2019-06-26T05:24:11.015Z,16.60
2019-06-26T05:27:18.930Z,16.60
2019-06-26T05:30:29.612Z,16.60
2019-06-26T05:33:43.262Z,16.60
2019-06-26T05:36:58.329Z,16.70
2019-06-26T05:40:08.049Z,16.70
2019-06-26T05:43:17.887Z,16.60
2019-06-26T05:46:30.699Z,16.60
2019-06-26T05:49:27.322Z,16.70
2019-06-26T05:52:42.686Z,16.70
2019-06-26T05:55:49.997Z,16.70
2019-06-26T05:58:53.449Z,16.80
2019-06-26T06:02:04.764Z,16.90
2019-06-26T06:05:25.754Z,16.80
2019-06-26T06:08:40.208Z,16.90
2019-06-26T06:11:49.582Z,17.00
2019-06-26T06:14:56.496Z,17.00
2019-06-26T06:18:09.141Z,17.10
2019-06-26T06:21:29.071Z,17.10
2019-06-26T06:24:42.969Z,17.10
2019-06-26T06:27:53.115Z,17.20
2019-06-26T06:31:02.061Z,17.10
2019-06-26T06:34:11.971Z,17.10
2019-06-26T06:37:24.694Z,17.10
2019-06-26T06:40:34.188Z,17.10
2019-06-26T06:43:49.799Z,17.20
2019-06-26T06:47:03.933Z,17.20
2019-06-26T06:49:54.152Z,17.30
2019-06-26T06:53:01.659Z,17.20
2019-06-26T06:56:13.173Z,17.20
2019-06-26T06:59:26.619Z,17.40
2019-06-26T07:02:42.706Z,17.40
2019-06-26T07:05:51.183Z,17.40
2019-06-26T07:09:01.167Z,17.60
2019-06-26T07:12:10.942Z,17.70
2019-06-26T07:15:24.985Z,17.70
2019-06-26T07:18:38.818Z,17.50
2019-06-26T07:21:48.017Z,17.50
2019-06-26T07:24:58.998Z,17.60
2019-06-26T07:28:08.657Z,17.70
2019-06-26T07:31:20.654Z,17.80
2019-06-26T07:34:31.493Z,18.00
2019-06-26T07:37:44.461Z,17.90
2019-06-26T07:40:53.703Z,18.00
2019-06-26T07:44:06.943Z,17.80
2019-06-26T07:47:42.002Z,17.70
2019-06-26T07:54:34.208Z,17.90
2019-06-26T07:57:43.718Z,18.30
2019-06-26T08:00:51.222Z,18.20
2019-06-26T08:04:02.383Z,18.20
2019-06-26T08:07:14.724Z,18.40
2019-06-26T08:10:26.881Z,18.40
2019-06-26T08:13:36.442Z,18.50
2019-06-26T08:16:45.795Z,18.50
2019-06-26T08:19:55.728Z,18.90
2019-06-26T08:23:05.517Z,18.80
2019-06-26T08:26:21.239Z,19.20
2019-06-26T08:29:29.227Z,19.90
2019-06-26T08:32:39.510Z,19.90
2019-06-26T08:35:48.191Z,20.10
2019-06-26T08:39:00.977Z,19.80
2019-06-26T08:42:11.059Z,20.10
2019-06-26T08:45:21.116Z,20.00
2019-06-26T08:48:39.021Z,20.60
2019-06-26T08:51:36.209Z,20.70
2019-06-26T08:54:45.756Z,21.10
2019-06-26T08:58:05.570Z,21.10
2019-06-26T09:01:16.239Z,21.30
2019-06-26T09:04:33.346Z,21.40
2019-06-26T09:07:43.837Z,21.30
2019-06-26T09:10:57.359Z,21.80
2019-06-26T09:14:09.135Z,22.00
2019-06-26T09:17:36.142Z,22.00
2019-06-26T09:20:54.537Z,22.00
2019-06-26T09:24:04.377Z,22.10
2019-06-26T09:27:15.318Z,22.10
2019-06-26T09:30:24.863Z,22.00
2019-06-26T09:33:38.567Z,22.10
2019-06-26T09:36:52.009Z,22.30
2019-06-26T09:40:01.486Z,22.20
2019-06-26T09:43:11.416Z,22.20
2019-06-26T09:46:25.255Z,22.20
2019-06-26T09:49:37.336Z,22.20
2019-06-26T09:52:48.623Z,22.10
2019-06-26T09:56:02.373Z,22.30
2019-06-26T09:59:06.025Z,22.10
2019-06-26T10:01:47.151Z,21.70
2019-06-26T10:04:18.826Z,21.60
2019-06-26T10:06:52.047Z,21.60
2019-06-26T10:09:25.076Z,21.40
2019-06-26T10:11:56.835Z,21.20
2019-06-26T10:14:45.517Z,21.20
2019-06-26T10:17:02.708Z,21.00
2019-06-26T10:19:35.017Z,21.00
2019-06-26T10:22:06.927Z,21.00
2019-06-26T10:24:38.659Z,21.10
2019-06-26T10:27:10.466Z,21.00
2019-06-26T10:29:42.332Z,20.80
2019-06-26T10:32:14.186Z,20.50
2019-06-26T10:34:46.021Z,20.70
2019-06-26T10:37:17.941Z,20.80
2019-06-26T10:39:50.912Z,20.80
2019-06-26T10:42:22.677Z,20.80
2019-06-26T10:44:56.089Z,20.80
2019-06-26T10:47:28.495Z,20.30
2019-06-26T10:50:00.324Z,20.60
2019-06-26T10:52:32.185Z,20.80
2019-06-26T10:55:04.606Z,20.80
2019-06-26T10:57:36.448Z,20.50
2019-06-26T11:00:09.708Z,20.60
2019-06-26T11:02:41.622Z,20.20
2019-06-26T11:05:15.656Z,20.10
2019-06-26T11:07:47.642Z,20.00
2019-06-26T11:10:19.470Z,20.10
2019-06-26T11:12:51.946Z,20.10
2019-06-26T11:15:25.320Z,20.20
2019-06-26T11:17:57.243Z,20.00
2019-06-26T11:20:30.444Z,19.90
2019-06-26T11:23:03.539Z,19.70
2019-06-26T11:25:35.118Z,19.90
2019-06-26T11:28:06.881Z,19.90
2019-06-26T11:30:39.690Z,19.90
2019-06-26T11:33:11.222Z,19.80
2019-06-26T11:35:42.987Z,19.80
2019-06-26T11:38:14.843Z,19.80
2019-06-26T11:40:46.447Z,19.80
2019-06-26T11:43:18.611Z,19.90
2019-06-26T11:45:50.683Z,19.90
2019-06-26T11:48:22.229Z,19.80
2019-06-26T11:50:55.677Z,19.90
2019-06-26T11:53:29.694Z,20.10
2019-06-26T11:56:01.559Z,20.00
2019-06-26T11:58:33.696Z,20.00
2019-06-26T12:01:05.492Z,20.00
2019-06-26T12:03:37.679Z,20.20
2019-06-26T12:06:18.180Z,20.30
2019-06-26T12:08:43.355Z,20.50
2019-06-26T12:11:15.376Z,20.10
2019-06-26T12:13:47.134Z,20.10
2019-06-26T12:16:18.769Z,19.90
2019-06-26T12:18:52.072Z,20.00
2019-06-26T12:21:23.897Z,19.80
2019-06-26T12:23:56.365Z,19.80
2019-06-26T12:26:28.038Z,19.90
2019-06-26T12:28:59.900Z,19.80
2019-06-26T12:31:31.845Z,19.80
2019-06-26T12:34:06.173Z,20.00
2019-06-26T12:36:38.070Z,20.00
2019-06-26T12:39:10.956Z,19.90
2019-06-26T12:41:44.784Z,19.90
2019-06-26T12:44:17.445Z,19.90
2019-06-26T12:46:50.260Z,20.00
2019-06-26T12:49:21.918Z,20.10
2019-06-26T12:51:53.766Z,20.10
2019-06-26T12:54:26.727Z,20.10
2019-06-26T12:56:58.419Z,20.10
2019-06-26T12:59:30.093Z,20.20
2019-06-26T13:02:01.903Z,20.30
2019-06-26T13:04:33.549Z,20.30
2019-06-26T13:07:04.895Z,20.40
2019-06-26T13:09:37.525Z,20.70
2019-06-26T13:12:10.442Z,20.60
2019-06-26T13:14:44.209Z,20.50
2019-06-26T13:17:17.223Z,20.60
2019-06-26T13:19:48.655Z,20.50
2019-06-26T13:22:20.206Z,20.50
2019-06-26T13:24:51.735Z,20.60
2019-06-26T13:27:23.323Z,20.60
2019-06-26T13:29:54.895Z,20.70
2019-06-26T13:32:26.321Z,20.40
2019-06-26T13:34:57.839Z,20.50
2019-06-26T13:37:29.341Z,20.70
2019-06-26T13:40:01.228Z,20.70
2019-06-26T13:42:32.617Z,20.90
2019-06-26T13:45:04.432Z,20.90
2019-06-26T13:47:36.525Z,20.90
2019-06-26T13:50:08.423Z,20.90
2019-06-26T13:52:40.098Z,20.90
2019-06-26T13:55:11.690Z,21.10
2019-06-26T13:57:43.495Z,21.10
2019-06-26T14:00:15.395Z,21.20
2019-06-26T14:02:47.019Z,21.20
2019-06-26T14:05:18.982Z,21.20
2019-06-26T14:07:51.000Z,21.20
2019-06-26T14:10:22.837Z,21.10
2019-06-26T14:12:54.573Z,21.10
2019-06-26T14:15:26.441Z,21.10
2019-06-26T14:17:57.884Z,21.20
2019-06-26T14:20:29.647Z,21.50
